createdAt,value
2023-03-26T00:01:24.725Z,8.40
2023-03-26T00:06:31.933Z,7.20
2023-03-26T00:09:02.145Z,6.32
2023-03-26T00:11:29.243Z,9.07
2023-03-26T00:13:58.812Z,8.95
2023-03-26T00:16:33.902Z,8.15
2023-03-26T00:19:00.506Z,7.80
2023-03-26T00:21:28.192Z,7.65
2023-03-26T00:23:55.911Z,9.65
2023-03-26T00:26:22.584Z,8.95
2023-03-26T00:28:49.655Z,6.40
2023-03-26T00:31:16.967Z,7.60
2023-03-26T00:33:43.965Z,7.45
2023-03-26T00:36:12.098Z,10.75
2023-03-26T00:38:39.258Z,6.15
2023-03-26T00:41:10.058Z,9.20
2023-03-26T00:43:42.621Z,7.35
2023-03-26T00:46:18.121Z,7.88
2023-03-26T00:48:46.282Z,7.70
2023-03-26T00:51:14.340Z,4.35
2023-03-26T00:53:44.182Z,6.25
2023-03-26T00:56:12.110Z,7.43
2023-03-26T00:58:45.519Z,7.20
2023-03-26T01:01:30.471Z,6.70
2023-03-26T01:04:07.473Z,6.35
2023-03-26T01:06:37.015Z,6.35
2023-03-26T01:09:21.185Z,7.22
2023-03-26T01:11:55.040Z,7.35
2023-03-26T01:16:59.609Z,10.03
2023-03-26T01:19:38.354Z,8.18
2023-03-26T01:22:07.064Z,8.60
2023-03-26T01:24:36.173Z,7.97
2023-03-26T01:29:49.495Z,8.40
2023-03-26T01:32:38.578Z,4.88
2023-03-26T01:35:12.730Z,5.65
2023-03-26T01:37:49.111Z,7.65
2023-03-26T01:40:36.743Z,8.25
2023-03-26T01:43:13.276Z,6.07
2023-03-26T01:45:42.138Z,9.00
2023-03-26T01:48:09.668Z,9.13
2023-03-26T01:50:36.310Z,8.00
2023-03-26T01:53:09.299Z,7.70
2023-03-26T01:55:43.360Z,6.20
2023-03-26T01:58:13.214Z,6.72
2023-03-26T02:03:21.816Z,10.50
2023-03-26T02:05:54.673Z,8.23
2023-03-26T02:08:28.258Z,10.30
2023-03-26T02:10:56.983Z,17.38
2023-03-26T02:13:24.382Z,10.52
2023-03-26T02:16:02.021Z,12.68
2023-03-26T02:18:30.653Z,16.70
2023-03-26T02:21:05.408Z,12.10
2023-03-26T02:23:34.943Z,13.07
2023-03-26T02:26:17.017Z,12.20
2023-03-26T02:28:45.044Z,13.80
2023-03-26T02:31:12.060Z,16.05
2023-03-26T02:33:42.245Z,17.88
2023-03-26T02:36:09.158Z,12.63
2023-03-26T02:38:35.774Z,12.85
2023-03-26T02:41:02.963Z,13.98
2023-03-26T02:43:35.202Z,10.88
2023-03-26T02:46:09.080Z,12.10
2023-03-26T02:48:35.684Z,12.38
2023-03-26T02:51:12.830Z,13.18
2023-03-26T02:53:40.189Z,14.70
2023-03-26T02:56:07.286Z,16.77
2023-03-26T02:58:33.808Z,13.55
2023-03-26T03:01:03.446Z,11.93
2023-03-26T03:03:34.290Z,16.67
2023-03-26T03:06:00.808Z,17.33
2023-03-26T03:08:27.875Z,18.30
2023-03-26T03:11:02.294Z,21.08
2023-03-26T03:13:31.295Z,18.75
2023-03-26T03:16:00.782Z,18.80
2023-03-26T03:18:30.093Z,20.00
2023-03-26T03:20:56.879Z,15.95
2023-03-26T03:26:43.021Z,17.65
2023-03-26T03:29:20.798Z,21.42
2023-03-26T03:31:58.986Z,17.33
2023-03-26T03:34:27.534Z,15.98
2023-03-26T03:36:54.201Z,14.20
2023-03-26T03:39:33.778Z,12.90
2023-03-26T03:42:10.644Z,16.55
2023-03-26T03:44:39.278Z,16.08
2023-03-26T03:47:06.169Z,15.82
2023-03-26T03:52:27.891Z,16.67
2023-03-26T03:54:57.192Z,17.38
2023-03-26T03:57:25.924Z,15.07
2023-03-26T03:59:52.755Z,16.05
2023-03-26T04:02:20.258Z,16.23
2023-03-26T04:04:54.531Z,15.30
2023-03-26T04:07:21.085Z,15.98
2023-03-26T04:09:49.618Z,17.13
2023-03-26T04:12:29.633Z,17.70
2023-03-26T04:17:45.654Z,16.55
2023-03-26T04:20:12.754Z,17.90
2023-03-26T04:22:42.710Z,14.50
2023-03-26T04:25:10.298Z,23.73
2023-03-26T04:27:37.178Z,19.60
2023-03-26T04:30:05.644Z,24.48
2023-03-26T04:32:33.022Z,18.77
2023-03-26T04:35:00.789Z,19.75
2023-03-26T04:37:29.329Z,17.63
2023-03-26T04:39:57.508Z,18.50
2023-03-26T04:42:27.274Z,21.23
2023-03-26T04:44:54.529Z,21.05
2023-03-26T04:47:22.009Z,18.15
2023-03-26T04:49:48.600Z,18.13
2023-03-26T04:52:18.961Z,18.88
2023-03-26T04:57:47.501Z,23.40
2023-03-26T05:00:16.178Z,24.90
2023-03-26T05:02:43.397Z,18.25
2023-03-26T05:07:42.471Z,22.70
2023-03-26T05:10:13.639Z,22.40
2023-03-26T05:12:56.281Z,17.02
2023-03-26T05:15:41.233Z,21.52
2023-03-26T05:20:39.301Z,18.27
2023-03-26T05:23:08.836Z,16.02
2023-03-26T05:25:41.239Z,14.73
2023-03-26T05:28:10.297Z,16.23
2023-03-26T05:30:37.000Z,16.83
2023-03-26T05:33:03.793Z,16.67
2023-03-26T05:35:34.473Z,15.05
2023-03-26T05:38:09.019Z,16.08
2023-03-26T05:40:46.333Z,15.45
2023-03-26T05:43:12.891Z,17.35
2023-03-26T05:45:41.531Z,17.02
2023-03-26T05:48:08.258Z,14.43
2023-03-26T05:50:34.898Z,13.57
2023-03-26T05:53:05.472Z,13.60
2023-03-26T05:55:32.704Z,13.48
2023-03-26T05:58:00.322Z,14.45
2023-03-26T06:00:27.440Z,15.35
2023-03-26T06:02:54.093Z,14.63
2023-03-26T06:05:23.481Z,13.07
2023-03-26T06:10:23.371Z,13.07
2023-03-26T06:12:50.352Z,16.75
2023-03-26T06:15:16.957Z,9.98
2023-03-26T06:17:43.602Z,11.05
2023-03-26T06:20:10.523Z,9.63
2023-03-26T06:22:38.318Z,13.93
2023-03-26T06:25:05.232Z,10.90
2023-03-26T06:27:35.388Z,12.18
2023-03-26T06:30:02.008Z,9.45
2023-03-26T06:32:29.411Z,10.32
2023-03-26T06:34:55.936Z,11.63
2023-03-26T06:37:22.438Z,12.05
2023-03-26T06:39:53.396Z,10.13
2023-03-26T06:42:19.963Z,11.65
2023-03-26T06:44:46.546Z,8.90
2023-03-26T06:47:13.125Z,12.43
2023-03-26T06:52:11.540Z,10.07
2023-03-26T06:54:41.368Z,9.88
2023-03-26T06:57:08.147Z,10.35
2023-03-26T06:59:35.418Z,10.20
2023-03-26T07:02:03.132Z,7.40
2023-03-26T07:04:33.353Z,7.60
2023-03-26T07:06:59.856Z,11.00
2023-03-26T07:09:26.516Z,11.45
2023-03-26T07:11:53.196Z,9.27
2023-03-26T07:14:34.524Z,5.63
2023-03-26T07:17:02.454Z,8.35
2023-03-26T07:19:30.398Z,8.07
2023-03-26T07:21:57.526Z,9.95
2023-03-26T07:24:26.497Z,8.48
2023-03-26T07:26:59.924Z,8.02
2023-03-26T07:32:29.815Z,8.30
2023-03-26T07:35:11.492Z,10.40
2023-03-26T07:37:51.934Z,9.30
2023-03-26T07:40:27.911Z,11.32
2023-03-26T07:43:02.437Z,13.90
2023-03-26T07:45:42.503Z,11.30
2023-03-26T07:48:22.693Z,11.27
2023-03-26T07:50:50.723Z,13.57
2023-03-26T07:53:17.364Z,12.68
2023-03-26T07:56:04.803Z,12.50
2023-03-26T08:04:24.178Z,11.50
2023-03-26T08:07:13.458Z,11.95
2023-03-26T08:09:40.468Z,12.48
2023-03-26T08:14:51.411Z,13.18
2023-03-26T08:17:28.814Z,11.90
2023-03-26T08:20:10.056Z,13.38
2023-03-26T08:22:41.789Z,14.65
2023-03-26T08:25:11.271Z,12.35
2023-03-26T08:27:40.447Z,14.75
2023-03-26T08:30:15.512Z,16.48
2023-03-26T08:32:42.247Z,12.25
2023-03-26T08:35:13.152Z,12.50
2023-03-26T08:37:39.758Z,14.27
2023-03-26T08:40:10.862Z,13.63
2023-03-26T08:42:52.183Z,13.27
2023-03-26T08:45:31.724Z,9.88
2023-03-26T08:50:46.031Z,10.35
2023-03-26T08:53:18.725Z,9.95
2023-03-26T08:56:01.739Z,10.90
2023-03-26T08:59:05.730Z,12.88
2023-03-26T09:01:54.628Z,10.90
2023-03-26T09:04:36.591Z,12.23
2023-03-26T09:07:18.634Z,10.45
2023-03-26T09:09:51.245Z,10.50
2023-03-26T09:12:22.180Z,10.30
2023-03-26T09:20:05.519Z,4.40
2023-03-26T09:22:43.812Z,5.88
2023-03-26T09:25:33.482Z,7.20
2023-03-26T09:28:08.160Z,5.75
2023-03-26T09:30:56.774Z,9.55
2023-03-26T09:33:32.535Z,9.10
2023-03-26T09:35:59.041Z,8.93
2023-03-26T09:38:28.293Z,9.00
2023-03-26T09:40:55.273Z,9.82
2023-03-26T09:43:39.754Z,10.57
2023-03-26T09:46:29.360Z,6.95
2023-03-26T09:49:02.522Z,10.38
2023-03-26T09:51:35.301Z,8.97
2023-03-26T09:54:10.533Z,10.65
2023-03-26T09:56:46.383Z,10.35
2023-03-26T09:59:30.454Z,9.90
2023-03-26T10:02:08.120Z,7.03
2023-03-26T10:04:40.948Z,7.35
2023-03-26T10:07:26.488Z,6.93
2023-03-26T10:10:21.695Z,7.40
2023-03-26T10:12:53.614Z,7.50
2023-03-26T10:15:48.118Z,7.80
2023-03-26T10:18:27.090Z,5.28
2023-03-26T10:20:59.033Z,5.22
2023-03-26T10:23:44.519Z,3.55
2023-03-26T10:26:31.587Z,8.95
2023-03-26T10:29:17.524Z,7.65
2023-03-26T10:31:51.610Z,6.32
2023-03-26T10:34:29.274Z,6.60
2023-03-26T10:37:16.356Z,6.35
2023-03-26T10:40:11.494Z,8.20
2023-03-26T10:42:56.998Z,4.72
2023-03-26T10:45:32.052Z,8.48
2023-03-26T10:48:08.046Z,5.63
2023-03-26T10:50:35.656Z,5.13
2023-03-26T10:53:22.381Z,3.55
2023-03-26T10:55:53.552Z,3.67
2023-03-26T10:58:27.534Z,6.13
2023-03-26T11:03:43.347Z,6.15
2023-03-26T11:06:22.191Z,5.63
2023-03-26T11:08:56.950Z,5.40
2023-03-26T11:11:31.858Z,6.28
2023-03-26T11:14:02.592Z,5.95
2023-03-26T11:16:48.986Z,4.45
2023-03-26T11:19:15.708Z,5.07
2023-03-26T11:21:42.322Z,7.68
2023-03-26T11:24:33.582Z,5.10
2023-03-26T11:27:15.262Z,7.70
2023-03-26T11:29:51.718Z,6.78
2023-03-26T11:32:21.736Z,3.88
2023-03-26T11:34:57.364Z,4.55
2023-03-26T11:37:42.222Z,4.32
2023-03-26T11:40:43.834Z,5.10
2023-03-26T11:43:12.260Z,5.22
2023-03-26T11:45:41.522Z,3.22
2023-03-26T11:48:11.174Z,5.40
2023-03-26T11:50:54.092Z,4.35
2023-03-26T11:53:24.090Z,4.85
2023-03-26T11:56:04.074Z,3.50
2023-03-26T11:58:45.170Z,3.67
2023-03-26T12:01:20.293Z,4.38
2023-03-26T12:04:16.280Z,5.05
2023-03-26T12:07:13.535Z,4.07
2023-03-26T12:09:50.632Z,4.13
2023-03-26T12:12:17.775Z,4.53
2023-03-26T12:14:44.548Z,2.78
2023-03-26T12:17:30.996Z,2.38
2023-03-26T12:20:00.653Z,4.22
2023-03-26T12:22:41.729Z,4.88
2023-03-26T12:25:24.821Z,5.25
2023-03-26T12:27:51.471Z,3.72
2023-03-26T12:30:22.585Z,4.35
2023-03-26T12:33:01.155Z,4.30
2023-03-26T12:35:33.089Z,3.00
2023-03-26T12:38:17.703Z,2.97
2023-03-26T12:40:44.349Z,5.35
2023-03-26T12:44:51.244Z,4.45
2023-03-26T12:47:58.981Z,3.13
2023-03-26T12:49:16.847Z,3.53
2023-03-26T12:52:03.333Z,5.20
2023-03-26T12:54:46.729Z,3.00
2023-03-26T12:57:31.954Z,4.27
2023-03-26T13:02:44.318Z,3.10
2023-03-26T13:05:31.640Z,5.95
2023-03-26T13:07:58.684Z,5.22
2023-03-26T13:10:25.604Z,3.25
2023-03-26T13:13:14.720Z,4.32
2023-03-26T13:15:50.753Z,2.38
2023-03-26T13:18:34.446Z,4.10
2023-03-26T13:21:05.292Z,4.65
2023-03-26T13:23:38.391Z,4.95
2023-03-26T13:26:28.237Z,4.65
2023-03-26T13:29:01.016Z,3.75
2023-03-26T13:31:39.772Z,4.97
2023-03-26T13:34:10.791Z,3.05
2023-03-26T13:36:46.878Z,5.88
2023-03-26T13:39:22.800Z,5.00
2023-03-26T13:42:16.967Z,3.45
2023-03-26T13:44:50.826Z,2.03
2023-03-26T13:47:24.532Z,3.88
2023-03-26T13:49:55.026Z,2.47
2023-03-26T13:52:31.841Z,3.75
2023-03-26T13:55:00.398Z,4.40
2023-03-26T13:57:34.434Z,3.67
2023-03-26T14:00:22.084Z,4.78
2023-03-26T14:02:55.990Z,3.20
2023-03-26T14:05:22.856Z,2.88
2023-03-26T14:07:54.991Z,3.78
2023-03-26T14:10:35.092Z,3.83
2023-03-26T14:13:20.758Z,3.90
2023-03-26T14:15:58.561Z,3.92
2023-03-26T14:18:40.453Z,3.83
2023-03-26T14:21:27.002Z,2.70
2023-03-26T14:24:02.609Z,2.83
2023-03-26T14:26:41.384Z,4.47
2023-03-26T14:29:27.299Z,6.63
2023-03-26T14:32:24.588Z,2.78
2023-03-26T14:35:20.190Z,2.60
2023-03-26T14:37:51.372Z,4.28
2023-03-26T14:40:29.062Z,3.60
2023-03-26T14:43:16.344Z,4.22
2023-03-26T14:46:01.744Z,4.22
2023-03-26T14:48:31.277Z,4.47
2023-03-26T14:51:20.297Z,2.90
2023-03-26T14:53:50.685Z,3.40
2023-03-26T14:56:43.259Z,4.03
2023-03-26T14:59:09.907Z,5.05
2023-03-26T15:01:40.485Z,2.00
2023-03-26T15:04:20.385Z,4.10
2023-03-26T15:06:49.815Z,4.40
2023-03-26T15:09:22.764Z,3.40
2023-03-26T15:12:12.372Z,3.97
2023-03-26T15:20:28.446Z,3.92
2023-03-26T15:23:07.139Z,3.35
2023-03-26T15:25:33.688Z,2.25
2023-03-26T15:31:03.970Z,3.85
2023-03-26T15:34:06.830Z,3.05
2023-03-26T15:36:47.430Z,3.53
2023-03-26T15:39:26.635Z,3.92
2023-03-26T15:41:58.316Z,3.60
2023-03-26T15:44:53.143Z,4.43
2023-03-26T15:47:51.857Z,3.15
2023-03-26T15:50:27.232Z,4.88
2023-03-26T15:53:09.082Z,3.65
2023-03-26T15:56:03.123Z,4.32
2023-03-26T15:58:38.974Z,5.03
2023-03-26T16:01:24.468Z,4.13
2023-03-26T16:04:08.693Z,4.38
2023-03-26T16:06:53.941Z,3.80
2023-03-26T16:09:20.502Z,3.53
2023-03-26T16:12:01.382Z,3.60
2023-03-26T16:19:58.898Z,4.70
2023-03-26T16:22:53.943Z,5.03
2023-03-26T16:25:29.118Z,3.92
2023-03-26T16:28:11.314Z,3.05
2023-03-26T16:30:49.422Z,3.13
2023-03-26T16:33:20.293Z,4.38
2023-03-26T16:36:00.882Z,3.45
2023-03-26T16:38:27.617Z,4.07
2023-03-26T16:41:04.353Z,2.83
2023-03-26T16:43:50.721Z,3.33
2023-03-26T16:46:25.302Z,3.70
2023-03-26T16:49:08.216Z,4.03
2023-03-26T16:51:34.756Z,4.22
2023-03-26T16:54:19.652Z,3.53
2023-03-26T16:56:52.673Z,3.97
2023-03-26T16:59:31.586Z,5.72
2023-03-26T17:02:05.900Z,3.47
2023-03-26T17:07:26.146Z,3.35
2023-03-26T17:10:18.332Z,4.53
2023-03-26T17:12:54.782Z,3.90
2023-03-26T17:15:34.555Z,2.85
2023-03-26T17:18:24.926Z,5.63
2023-03-26T17:21:04.613Z,9.48
2023-03-26T17:23:47.362Z,5.05
2023-03-26T17:26:20.492Z,4.75
2023-03-26T17:28:58.968Z,5.68
2023-03-26T17:31:46.991Z,3.63
2023-03-26T17:34:33.056Z,5.47
2023-03-26T17:36:59.999Z,7.35
2023-03-26T17:39:41.900Z,4.88
2023-03-26T17:42:28.027Z,5.05
2023-03-26T17:44:58.096Z,11.45
2023-03-26T17:47:46.719Z,5.75
2023-03-26T17:50:27.540Z,6.55
2023-03-26T17:52:57.487Z,7.93
2023-03-26T17:55:35.751Z,7.88
2023-03-26T17:58:06.292Z,8.02
2023-03-26T18:00:34.773Z,12.00
2023-03-26T18:03:14.959Z,9.55
2023-03-26T18:05:41.688Z,6.07
2023-03-26T18:08:17.315Z,2.05
2023-03-26T18:11:03.100Z,2.22
2023-03-26T18:13:40.434Z,3.30
2023-03-26T18:16:17.249Z,3.85
2023-03-26T18:18:57.510Z,2.80
2023-03-26T18:21:24.664Z,2.38
2023-03-26T18:23:51.454Z,3.05
2023-03-26T18:26:19.701Z,3.28
2023-03-26T18:28:57.150Z,4.82
2023-03-26T18:31:24.766Z,3.72
2023-03-26T18:33:54.557Z,3.47
2023-03-26T18:36:23.968Z,4.38
2023-03-26T18:38:50.593Z,4.82
2023-03-26T18:41:23.886Z,4.28
2023-03-26T18:46:25.033Z,3.80
2023-03-26T18:48:53.356Z,6.25
2023-03-26T18:51:19.935Z,3.45
2023-03-26T18:53:51.409Z,3.80
2023-03-26T18:56:30.035Z,5.05
2023-03-26T18:59:02.296Z,3.15
2023-03-26T19:01:29.878Z,4.93
2023-03-26T19:04:24.002Z,4.40
2023-03-26T19:07:03.264Z,3.15
2023-03-26T19:09:38.646Z,3.30
2023-03-26T19:12:14.263Z,3.30
2023-03-26T19:14:55.901Z,2.53
2023-03-26T19:17:26.858Z,2.50
2023-03-26T19:19:56.023Z,2.60
2023-03-26T19:22:27.287Z,1.60
2023-03-26T19:25:03.584Z,1.40
2023-03-26T19:27:37.948Z,2.83
2023-03-26T19:30:04.692Z,4.30
2023-03-26T19:32:31.807Z,2.42
2023-03-26T19:34:59.300Z,3.85
2023-03-26T19:37:27.396Z,2.80
2023-03-26T19:40:15.823Z,2.38
2023-03-26T19:42:44.999Z,1.83
2023-03-26T19:45:16.898Z,3.97
2023-03-26T19:47:52.091Z,1.50
2023-03-26T19:50:33.858Z,1.48
2023-03-26T19:53:23.803Z,0.90
2023-03-26T19:55:56.296Z,1.75
2023-03-26T19:58:27.635Z,1.25
2023-03-26T20:00:54.490Z,1.50
2023-03-26T20:03:36.604Z,1.88
2023-03-26T20:06:10.905Z,2.45
2023-03-26T20:08:40.723Z,1.75
2023-03-26T20:11:16.672Z,1.05
2023-03-26T20:13:47.060Z,2.25
2023-03-26T20:16:32.759Z,1.00
2023-03-26T20:19:05.275Z,0.57
2023-03-26T20:21:36.127Z,0.68
2023-03-26T20:24:09.051Z,1.25
2023-03-26T20:26:35.575Z,1.98
2023-03-26T20:31:35.989Z,0.82
2023-03-26T20:34:02.642Z,1.77
2023-03-26T20:36:33.607Z,1.70
2023-03-26T20:39:02.259Z,1.38
2023-03-26T20:41:31.245Z,1.67
2023-03-26T20:44:05.896Z,1.63
2023-03-26T20:46:32.482Z,1.10
2023-03-26T20:48:59.939Z,1.98
2023-03-26T20:51:27.198Z,1.58
2023-03-26T20:53:55.050Z,2.45
2023-03-26T20:56:28.530Z,1.63
2023-03-26T20:59:11.552Z,2.53
2023-03-26T21:01:39.234Z,2.55
2023-03-26T21:04:09.572Z,2.67
2023-03-26T21:06:38.170Z,2.47
2023-03-26T21:09:05.091Z,1.30
2023-03-26T21:11:51.960Z,1.88
2023-03-26T21:14:25.994Z,1.80
2023-03-26T21:16:53.216Z,1.98
2023-03-26T21:19:20.190Z,1.77
2023-03-26T21:21:50.617Z,3.10
2023-03-26T21:24:41.662Z,1.95
2023-03-26T21:27:22.545Z,2.38
2023-03-26T21:29:49.260Z,1.27
2023-03-26T21:32:24.761Z,1.73
2023-03-26T21:34:58.156Z,1.02
2023-03-26T21:39:53.904Z,2.60
2023-03-26T21:42:20.685Z,1.75
2023-03-26T21:44:47.474Z,1.58
2023-03-26T21:47:48.642Z,1.92
2023-03-26T21:50:25.982Z,4.47
2023-03-26T21:52:53.544Z,3.47
2023-03-26T21:55:35.934Z,2.15
2023-03-26T21:58:30.180Z,1.50
2023-03-26T22:01:23.826Z,1.55
2023-03-26T22:04:22.014Z,2.08
2023-03-26T22:07:06.752Z,1.67
2023-03-26T22:09:44.116Z,1.80
2023-03-26T22:12:11.999Z,1.63
2023-03-26T22:14:43.066Z,1.50
2023-03-26T22:17:10.700Z,2.45
2023-03-26T22:19:43.819Z,1.50
2023-03-26T22:22:11.228Z,1.80
2023-03-26T22:24:37.903Z,2.60
2023-03-26T22:27:04.442Z,1.77
2023-03-26T22:29:33.619Z,1.67
2023-03-26T22:32:00.171Z,2.22
2023-03-26T22:34:26.837Z,3.20
2023-03-26T22:36:53.338Z,1.90
2023-03-26T22:39:22.878Z,3.15
2023-03-26T22:42:14.869Z,2.17
2023-03-26T22:44:44.595Z,3.28
2023-03-26T22:47:19.662Z,1.52
2023-03-26T22:49:51.269Z,2.35
2023-03-26T22:52:22.096Z,1.95
2023-03-26T22:54:56.103Z,2.47
2023-03-26T22:57:35.380Z,1.67
2023-03-26T23:00:06.252Z,2.00
2023-03-26T23:02:41.976Z,4.13
2023-03-26T23:05:14.196Z,1.95
2023-03-26T23:07:57.158Z,2.38
2023-03-26T23:10:32.128Z,2.45
2023-03-26T23:16:21.752Z,2.70
2023-03-26T23:18:48.395Z,3.05
2023-03-26T23:23:51.205Z,2.55
2023-03-26T23:26:17.881Z,3.15
2023-03-26T23:28:46.293Z,5.25
2023-03-26T23:31:14.290Z,3.38
2023-03-26T23:33:41.662Z,2.83
2023-03-26T23:36:15.113Z,3.08
2023-03-26T23:38:43.399Z,3.90
2023-03-26T23:41:11.467Z,2.95
2023-03-26T23:43:39.200Z,2.20
2023-03-26T23:46:27.663Z,2.40
2023-03-26T23:48:54.150Z,2.23
2023-03-26T23:51:21.312Z,1.90
2023-03-26T23:53:48.394Z,2.80
2023-03-26T23:56:21.934Z,3.05
2023-03-26T23:58:53.010Z,2.22
